Time;durP1;ratioP1;P1;durP2;ratioP2;P2;SDS_P1;SDS_P2;PMS_P1;PMS_P2;Temp;Humidity;BMP_temperature;BMP_pressure;BME280_temperature;BME280_humidity;BME280_pressure;Samples;Min_cycle;Max_cycle;Signal;HPM_P1;HPM_P2
2021/10/04 00:03:04;;;;;;;2.17;2.07;;;17.00;99.90;;;;;;9876946;29;20241;-84
2021/10/04 00:08:06;;;;;;;2.30;2.20;;;16.90;99.90;;;;;;9877193;30;20244;-85
2021/10/04 00:13:09;;;;;;;2.33;2.23;;;16.80;99.90;;;;;;9876259;30;20615;-85
2021/10/04 00:18:12;;;;;;;2.07;1.97;;;16.70;99.90;;;;;;9850612;30;20324;-85
2021/10/04 00:23:15;;;;;;;2.53;2.33;;;16.70;99.90;;;;;;9872764;29;20242;-84
2021/10/04 00:28:17;;;;;;;2.50;2.40;;;16.70;99.90;;;;;;9877047;30;20225;-84
2021/10/04 00:33:20;;;;;;;2.40;2.30;;;16.70;99.90;;;;;;9890927;30;20261;-84
2021/10/04 00:38:22;;;;;;;2.97;2.73;;;16.60;99.90;;;;;;9897940;29;20234;-84
2021/10/04 00:43:24;;;;;;;2.50;2.30;;;16.60;99.90;;;;;;9885532;29;20255;-85
2021/10/04 00:48:28;;;;;;;2.80;2.67;;;16.60;99.90;;;;;;9888573;30;20213;-85
2021/10/04 00:53:30;;;;;;;2.50;2.30;;;16.70;99.90;;;;;;9897635;30;20252;-85
2021/10/04 00:58:33;;;;;;;2.30;2.20;;;16.70;99.90;;;;;;9882176;30;20252;-84
2021/10/04 01:03:37;;;;;;;2.37;2.17;;;16.70;99.90;;;;;;9878602;29;20321;-85
2021/10/04 01:08:39;;;;;;;2.43;2.33;;;16.80;99.90;;;;;;9882565;30;20222;-85
2021/10/04 01:13:41;;;;;;;2.20;2.10;;;16.80;99.90;;;;;;9881891;30;20231;-85
2021/10/04 01:18:45;;;;;;;2.23;2.13;;;16.90;99.90;;;;;;9907730;29;20781;-84
2021/10/04 01:23:48;;;;;;;2.03;1.93;;;16.90;99.90;;;;;;9888098;30;20231;-85
2021/10/04 01:28:51;;;;;;;2.00;1.90;;;16.90;99.90;;;;;;9888185;29;20656;-84
2021/10/04 01:33:55;;;;;;;2.50;2.40;;;16.90;99.90;;;;;;9893808;29;20731;-84
2021/10/04 01:39:00;;;;;;;2.37;2.27;;;16.90;99.90;;;;;;9865996;30;20226;-85
2021/10/04 01:44:03;;;;;;;2.60;2.50;;;16.90;99.90;;;;;;9880335;30;20238;-85
2021/10/04 01:49:05;;;;;;;2.47;2.37;;;16.90;99.90;;;;;;9879742;30;20207;-85
2021/10/04 01:54:09;;;;;;;2.00;1.90;;;16.90;99.90;;;;;;9879582;29;20676;-85
2021/10/04 01:59:12;;;;;;;1.73;1.63;;;16.90;99.90;;;;;;9879306;30;20603;-85
2021/10/04 02:04:15;;;;;;;1.50;1.50;;;16.80;99.90;;;;;;9894424;29;20300;-85
2021/10/04 02:09:19;;;;;;;2.00;1.90;;;16.80;99.90;;;;;;9896434;29;20765;-84
2021/10/04 02:14:21;;;;;;;2.33;2.10;;;16.80;99.90;;;;;;9889013;30;20253;-85
2021/10/04 02:19:23;;;;;;;1.80;1.70;;;16.80;99.90;;;;;;9878863;30;20222;-85
2021/10/04 02:24:27;;;;;;;2.00;1.90;;;16.80;99.90;;;;;;9863178;30;20242;-85
2021/10/04 02:29:29;;;;;;;1.90;1.70;;;16.70;99.90;;;;;;9878534;30;20226;-84
2021/10/04 02:34:31;;;;;;;2.00;1.90;;;16.70;99.90;;;;;;9898460;29;20719;-85
2021/10/04 02:39:34;;;;;;;2.00;1.90;;;16.70;99.90;;;;;;9879093;29;20302;-84
2021/10/04 02:44:37;;;;;;;1.83;1.73;;;16.60;99.90;;;;;;9892224;30;20246;-85
2021/10/04 02:49:39;;;;;;;1.80;1.70;;;16.50;99.90;;;;;;9907753;29;20248;-85
2021/10/04 02:54:42;;;;;;;2.20;2.10;;;16.50;99.90;;;;;;9898772;29;20320;-85
2021/10/04 02:59:45;;;;;;;2.10;2.00;;;16.50;99.90;;;;;;9890805;30;20211;-85
2021/10/04 03:04:47;;;;;;;2.00;1.90;;;16.40;99.90;;;;;;9890088;29;20613;-85
2021/10/04 03:09:51;;;;;;;2.30;2.10;;;16.40;99.90;;;;;;9907217;30;20245;-85
2021/10/04 03:14:54;;;;;;;2.10;2.00;;;16.30;99.90;;;;;;9892317;29;20237;-85
2021/10/04 03:19:56;;;;;;;2.10;2.00;;;16.30;99.90;;;;;;9887897;30;20239;-85
2021/10/04 03:25:00;;;;;;;2.03;1.93;;;16.30;99.90;;;;;;9891644;30;20329;-85
2021/10/04 03:30:02;;;;;;;2.00;1.90;;;16.30;99.90;;;;;;9907000;30;20241;-85
2021/10/04 03:35:05;;;;;;;1.80;1.70;;;16.20;99.90;;;;;;9895912;29;20218;-85
2021/10/04 03:40:10;;;;;;;1.90;1.90;;;16.20;99.90;;;;;;9862945;30;20222;-84
2021/10/04 03:45:13;;;;;;;1.97;1.87;;;16.10;99.90;;;;;;9880128;30;20230;-85
2021/10/04 03:50:16;;;;;;;2.17;2.07;;;16.10;99.90;;;;;;9877106;30;20218;-84
2021/10/04 03:55:20;;;;;;;2.40;2.30;;;16.10;99.90;;;;;;9877275;30;20238;-85
2021/10/04 04:00:24;;;;;;;1.90;1.80;;;16.10;99.90;;;;;;9904456;29;20217;-85
2021/10/04 04:05:26;;;;;;;2.30;2.20;;;16.00;99.90;;;;;;9841978;30;20739;-84
2021/10/04 04:10:30;;;;;;;2.20;2.10;;;16.00;99.90;;;;;;9890447;30;20233;-84
2021/10/04 04:15:32;;;;;;;2.30;2.20;;;15.90;99.90;;;;;;9915403;29;20333;-84
2021/10/04 04:20:34;;;;;;;2.17;2.07;;;15.90;99.90;;;;;;9904792;30;20207;-84
2021/10/04 04:25:38;;;;;;;1.43;1.43;;;15.90;99.90;;;;;;9908048;29;20237;-85
2021/10/04 04:30:40;;;;;;;2.47;2.37;;;15.80;99.90;;;;;;9902988;29;20206;-85
2021/10/04 04:35:42;;;;;;;2.70;2.60;;;15.80;99.90;;;;;;9873483;24;20262;-84
2021/10/04 04:40:46;;;;;;;2.03;1.93;;;15.80;99.90;;;;;;9827146;30;20219;-83
2021/10/04 04:45:48;;;;;;;2.30;2.20;;;15.80;99.90;;;;;;9832683;30;20316;-84
2021/10/04 04:50:50;;;;;;;2.20;2.10;;;15.80;99.90;;;;;;9861298;30;20298;-83
2021/10/04 04:55:54;;;;;;;2.20;2.10;;;15.80;99.90;;;;;;9845774;30;20326;-83
2021/10/04 05:00:56;;;;;;;2.07;1.87;;;15.70;99.90;;;;;;9860542;30;20711;-82
2021/10/04 05:05:58;;;;;;;2.20;2.10;;;15.70;99.90;;;;;;9874365;30;20238;-84
2021/10/04 05:11:01;;;;;;;2.00;1.90;;;15.70;99.90;;;;;;9860718;30;20234;-84
2021/10/04 05:16:04;;;;;;;2.00;1.90;;;15.70;99.90;;;;;;9846007;30;20253;-84
2021/10/04 05:21:06;;;;;;;2.60;2.40;;;15.80;99.90;;;;;;9826836;30;20230;-83
2021/10/04 05:26:16;;;;;;;2.30;2.20;;;15.80;99.90;;;;;;9840669;30;20315;-84
2021/10/04 05:31:19;;;;;;;2.50;2.30;;;15.80;99.90;;;;;;9857203;30;20692;-83
2021/10/04 05:36:21;;;;;;;2.80;2.60;;;15.80;99.90;;;;;;9844865;30;20658;-83
2021/10/04 05:41:24;;;;;;;3.50;3.20;;;15.80;99.90;;;;;;9837125;30;20653;-82
2021/10/04 05:46:26;;;;;;;3.20;2.90;;;15.80;99.90;;;;;;9836060;30;20251;-82
2021/10/04 05:51:29;;;;;;;2.80;2.60;;;15.70;99.90;;;;;;9851349;30;20302;-82
2021/10/04 05:56:32;;;;;;;2.40;2.30;;;15.70;99.90;;;;;;9858234;30;20262;-82
2021/10/04 06:01:34;;;;;;;2.27;2.17;;;15.70;99.90;;;;;;9858989;30;20434;-82
2021/10/04 06:06:36;;;;;;;2.50;2.40;;;15.60;99.90;;;;;;9859465;30;20299;-82
2021/10/04 06:11:40;;;;;;;3.67;2.50;;;15.60;99.90;;;;;;9860113;30;20223;-82
2021/10/04 06:16:42;;;;;;;3.30;3.00;;;15.50;99.90;;;;;;9845487;30;20258;-82
2021/10/04 06:21:44;;;;;;;3.17;2.97;;;15.40;99.90;;;;;;9846327;30;20266;-82
2021/10/04 06:26:47;;;;;;;2.60;2.50;;;15.40;99.90;;;;;;9868897;30;20212;-82
2021/10/04 06:31:50;;;;;;;2.80;2.60;;;15.30;99.90;;;;;;9863986;30;20250;-82
2021/10/04 06:36:52;;;;;;;3.00;2.80;;;15.40;99.90;;;;;;9867368;30;20223;-82
2021/10/04 06:41:55;;;;;;;3.07;2.97;;;15.40;99.90;;;;;;9856871;30;20257;-82
2021/10/04 06:47:04;;;;;;;3.03;2.93;;;15.40;99.90;;;;;;9845278;30;20208;-82
2021/10/04 06:52:07;;;;;;;3.30;3.00;;;15.40;99.90;;;;;;9850243;30;20598;-82
2021/10/04 06:57:10;;;;;;;3.63;3.33;;;15.50;99.90;;;;;;9835265;30;20293;-82
2021/10/04 07:02:13;;;;;;;3.33;3.13;;;15.50;99.90;;;;;;9823445;30;20228;-83
2021/10/04 07:07:15;;;;;;;2.97;2.77;;;15.50;99.90;;;;;;9823040;30;20208;-82
2021/10/04 07:12:18;;;;;;;5.53;3.10;;;15.50;99.90;;;;;;9820122;30;20724;-82
2021/10/04 07:17:20;;;;;;;4.57;3.53;;;15.50;99.90;;;;;;9808305;30;20240;-83
2021/10/04 07:22:23;;;;;;;4.03;3.80;;;15.50;99.90;;;;;;9849324;30;20297;-80
2021/10/04 07:27:27;;;;;;;3.57;3.37;;;15.50;99.90;;;;;;9858980;30;20648;-82
2021/10/04 07:32:29;;;;;;;3.93;3.73;;;15.50;99.90;;;;;;9863853;30;20231;-83
2021/10/04 07:37:31;;;;;;;5.03;4.63;;;15.60;99.90;;;;;;9855792;30;20239;-83
2021/10/04 07:42:35;;;;;;;6.70;6.20;;;15.60;99.90;;;;;;9854685;30;20223;-80
2021/10/04 07:47:37;;;;;;;5.60;5.20;;;15.70;99.90;;;;;;9854284;30;20261;-82
2021/10/04 07:52:39;;;;;;;5.93;5.43;;;15.70;99.90;;;;;;9854211;30;20241;-83
2021/10/04 07:57:56;;;;;;;8.17;6.47;;;15.70;99.90;;;;;;9872090;30;20310;-82
2021/10/04 08:02:59;;;;;;;8.33;7.73;;;15.70;99.90;;;;;;9871032;30;20258;-82
2021/10/04 08:08:01;;;;;;;6.47;5.90;;;15.60;99.90;;;;;;9870862;30;20203;-82
2021/10/04 08:13:05;;;;;;;5.00;4.60;;;15.50;99.90;;;;;;9874091;30;20227;-83
2021/10/04 08:18:07;;;;;;;4.37;4.17;;;15.50;99.90;;;;;;9856720;30;20306;-80
2021/10/04 08:23:10;;;;;;;5.10;4.80;;;15.50;99.90;;;;;;9873287;30;20392;-82
2021/10/04 08:28:14;;;;;;;4.60;4.30;;;15.50;99.90;;;;;;9842432;30;20211;-80
2021/10/04 08:33:16;;;;;;;5.17;4.87;;;15.50;99.90;;;;;;9857970;30;20739;-82
2021/10/04 08:38:18;;;;;;;5.60;5.30;;;15.50;99.90;;;;;;9864014;30;20231;-82
2021/10/04 08:43:22;;;;;;;5.10;4.80;;;15.50;99.90;;;;;;9854572;30;20223;-81
2021/10/04 08:48:25;;;;;;;6.53;6.13;;;15.50;99.90;;;;;;9874029;30;20237;-81
2021/10/04 08:53:28;;;;;;;5.90;5.50;;;15.50;99.90;;;;;;9871507;30;20233;-81
2021/10/04 08:58:33;;;;;;;5.17;4.87;;;15.50;99.90;;;;;;9871796;30;20318;-80
2021/10/04 09:03:46;;;;;;;5.00;4.70;;;15.50;99.90;;;;;;9845778;30;20231;-81
2021/10/04 09:08:52;;;;;;;5.70;5.40;;;15.50;99.90;;;;;;9880873;30;20209;-81
2021/10/04 09:14:01;;;;;;;5.83;5.40;;;15.50;99.90;;;;;;9851681;30;20271;-80
2021/10/04 09:19:18;;;;;;;5.60;5.30;;;15.50;99.90;;;;;;9857838;30;20326;-79
2021/10/04 09:24:20;;;;;;;5.00;4.60;;;15.40;99.90;;;;;;9858251;30;20242;-80
2021/10/04 09:29:24;;;;;;;5.23;4.87;;;15.50;99.90;;;;;;9860709;30;20230;-81
2021/10/04 09:34:27;;;;;;;5.37;5.07;;;15.50;99.90;;;;;;9861657;30;20246;-81
2021/10/04 09:39:32;;;;;;;5.30;5.00;;;15.50;99.90;;;;;;9876501;30;20230;-81
2021/10/04 09:44:54;;;;;;;4.30;4.10;;;15.60;99.90;;;;;;9848402;30;20234;-81
2021/10/04 09:49:59;;;;;;;3.10;2.90;;;15.70;99.90;;;;;;9861905;30;20223;-81
2021/10/04 09:55:02;;;;;;;3.97;3.67;;;15.70;99.90;;;;;;9846204;30;20343;-81
2021/10/04 10:00:11;;;;;;;4.10;3.80;;;15.70;99.90;;;;;;9838638;30;20239;-80
2021/10/04 10:05:14;;;;;;;4.40;4.10;;;15.80;99.90;;;;;;9809821;30;20788;-81
2021/10/04 10:10:16;;;;;;;4.23;4.03;;;15.80;99.90;;;;;;9825314;30;20205;-81
2021/10/04 10:15:33;;;;;;;4.43;4.23;;;15.90;99.90;;;;;;9839688;30;20224;-81
2021/10/04 10:20:37;;;;;;;3.87;3.63;;;15.90;99.90;;;;;;9824017;30;20228;-81
2021/10/04 10:25:41;;;;;;;3.93;3.73;;;16.00;99.90;;;;;;9824127;30;20243;-81
2021/10/04 10:30:54;;;;;;;3.40;3.30;;;16.10;99.90;;;;;;9824857;30;20218;-80
2021/10/04 10:35:56;;;;;;;5.47;5.07;;;16.10;99.90;;;;;;9836774;30;20251;-81
2021/10/04 10:41:18;;;;;;;4.23;4.03;;;16.10;99.90;;;;;;9843306;30;20278;-81
2021/10/04 10:46:50;;;;;;;2.80;2.70;;;16.20;99.90;;;;;;9836269;30;20630;-82
2021/10/04 10:52:16;;;;;;;3.40;3.30;;;16.10;99.90;;;;;;9828168;30;20235;-81
2021/10/04 10:57:19;;;;;;;3.47;3.37;;;16.20;99.90;;;;;;9861439;30;20243;-81
2021/10/04 11:02:55;;;;;;;2.70;2.50;;;16.20;99.90;;;;;;9846295;30;20248;-81
2021/10/04 11:07:57;;;;;;;2.80;2.70;;;16.20;99.90;;;;;;9871633;30;20198;-81
2021/10/04 11:13:20;;;;;;;1.90;1.80;;;16.30;99.90;;;;;;9871067;30;20250;-81
2021/10/04 11:18:26;;;;;;;2.80;2.60;;;16.30;99.90;;;;;;9856416;30;20235;-81
2021/10/04 11:23:29;;;;;;;2.17;1.70;;;16.30;99.90;;;;;;9854926;30;20238;-81
2021/10/04 11:28:40;;;;;;;1.70;1.60;;;16.40;99.90;;;;;;9856642;30;20211;-81
2021/10/04 11:33:52;;;;;;;1.70;1.70;;;16.40;99.90;;;;;;9871765;30;20389;-82
2021/10/04 11:38:57;;;;;;;1.60;1.60;;;16.40;99.90;;;;;;9841927;30;20235;-82
2021/10/04 11:44:02;;;;;;;1.70;1.60;;;16.50;99.90;;;;;;9856383;30;20277;-82
2021/10/04 11:49:08;;;;;;;1.63;1.57;;;16.60;99.90;;;;;;9872232;30;20234;-82
2021/10/04 11:54:10;;;;;;;2.00;1.90;;;16.70;99.90;;;;;;9831355;30;20290;-82
2021/10/04 11:59:12;;;;;;;1.00;1.00;;;16.80;99.90;;;;;;9803913;30;20243;-82
2021/10/04 12:04:17;;;;;;;1.50;1.40;;;16.80;99.90;;;;;;9835399;30;20312;-82
2021/10/04 12:09:22;;;;;;;1.30;1.17;;;16.80;99.90;;;;;;9833500;30;20283;-82
2021/10/04 12:14:26;;;;;;;1.80;1.70;;;16.70;99.90;;;;;;9834491;30;20625;-82
2021/10/04 12:19:29;;;;;;;2.00;1.90;;;16.70;99.90;;;;;;9819590;30;20243;-82
2021/10/04 12:24:38;;;;;;;2.17;2.07;;;16.80;99.90;;;;;;9844187;30;20257;-82
2021/10/04 12:29:43;;;;;;;2.50;2.40;;;16.80;99.90;;;;;;9872318;30;20290;-82
2021/10/04 12:34:59;;;;;;;2.30;2.20;;;16.90;99.90;;;;;;9840853;30;20243;-82
2021/10/04 12:40:22;;;;;;;2.10;2.00;;;16.90;99.90;;;;;;9863387;30;20271;-82
2021/10/04 12:45:24;;;;;;;1.53;1.47;;;16.90;99.90;;;;;;9868242;30;20255;-84
2021/10/04 12:50:31;;;;;;;1.80;1.70;;;16.90;99.90;;;;;;9867275;30;20211;-81
2021/10/04 12:55:48;;;;;;;15.70;5.63;;;17.10;99.90;;;;;;9828592;30;20240;-82
2021/10/04 13:00:51;;;;;;;2.50;2.30;;;17.20;99.90;;;;;;9823837;30;20238;-82
2021/10/04 13:05:54;;;;;;;2.20;1.53;;;17.30;99.90;;;;;;9839623;30;20340;-82
2021/10/04 13:11:01;;;;;;;1.90;1.80;;;17.40;99.90;;;;;;9822616;30;20208;-82
2021/10/04 13:16:09;;;;;;;2.90;1.80;;;17.40;99.90;;;;;;9822416;30;20793;-82
2021/10/04 13:21:13;;;;;;;1.77;1.67;;;17.40;99.90;;;;;;9839517;30;20263;-82
2021/10/04 13:26:17;;;;;;;2.00;1.90;;;17.40;99.90;;;;;;9859810;30;20230;-82
2021/10/04 13:31:23;;;;;;;1.60;1.50;;;17.50;99.90;;;;;;9843741;30;20577;-82
2021/10/04 13:36:27;;;;;;;2.27;2.07;;;17.50;99.90;;;;;;9859587;30;20904;-82
2021/10/04 13:41:29;;;;;;;2.60;2.40;;;17.60;99.90;;;;;;9845145;30;20231;-82
2021/10/04 13:46:31;;;;;;;1.80;1.70;;;17.70;99.90;;;;;;9845076;30;20245;-82
2021/10/04 13:51:36;;;;;;;1.93;1.83;;;17.60;99.90;;;;;;9857227;30;20700;-82
2021/10/04 13:56:38;;;;;;;2.17;1.97;;;17.60;99.90;;;;;;9858558;30;20230;-82
2021/10/04 14:01:41;;;;;;;2.07;1.97;;;17.60;99.90;;;;;;9858620;30;20235;-82
2021/10/04 14:06:45;;;;;;;2.00;1.90;;;17.70;99.90;;;;;;9843899;30;20744;-82
2021/10/04 14:11:47;;;;;;;1.47;1.47;;;17.70;99.90;;;;;;9844055;30;20262;-82
2021/10/04 14:16:49;;;;;;;2.17;1.77;;;17.60;99.90;;;;;;9862436;30;20298;-82
2021/10/04 14:21:53;;;;;;;2.10;2.00;;;17.60;99.90;;;;;;9874601;30;20236;-82
2021/10/04 14:26:58;;;;;;;2.17;1.20;;;17.60;99.90;;;;;;9841814;30;20273;-82
2021/10/04 14:32:03;;;;;;;1.70;1.60;;;17.60;99.90;;;;;;9872701;30;20334;-82
2021/10/04 14:37:06;;;;;;;1.90;1.80;;;17.50;99.90;;;;;;9857768;30;20207;-82
2021/10/04 14:42:09;;;;;;;1.50;1.40;;;17.40;99.90;;;;;;9858558;30;20289;-82
2021/10/04 14:47:12;;;;;;;2.10;1.90;;;17.20;99.90;;;;;;9860343;30;20322;-82
2021/10/04 14:52:17;;;;;;;2.80;2.53;;;17.10;99.90;;;;;;9847946;30;20232;-82
2021/10/04 14:57:21;;;;;;;2.70;2.50;;;17.10;99.90;;;;;;9834795;30;20212;-82
2021/10/04 15:02:23;;;;;;;3.90;2.30;;;17.10;99.90;;;;;;9832262;30;20728;-82
2021/10/04 15:07:28;;;;;;;3.03;2.83;;;17.10;99.90;;;;;;9832915;30;20212;-82
2021/10/04 15:12:30;;;;;;;3.10;2.90;;;17.10;99.90;;;;;;9802645;30;20242;-82
2021/10/04 15:24:57;;;;;;;2.50;2.30;;;17.00;99.90;;;;;;9766477;30;20242;-82
2021/10/04 15:30:24;;;;;;;2.53;2.33;;;17.00;99.90;;;;;;9811094;30;20662;-82
2021/10/04 15:35:27;;;;;;;4.27;2.73;;;17.00;99.90;;;;;;9839675;30;20660;-82
2021/10/04 15:40:33;;;;;;;3.23;3.03;;;17.00;99.90;;;;;;9841187;30;20239;-82
2021/10/04 15:45:39;;;;;;;3.50;3.13;;;17.00;99.90;;;;;;9841280;30;20223;-82
2021/10/04 15:50:42;;;;;;;3.27;3.07;;;16.90;99.90;;;;;;9854836;30;20599;-82
2021/10/04 15:56:05;;;;;;;3.17;2.97;;;16.90;99.90;;;;;;9861502;30;20657;-82
2021/10/04 16:01:10;;;;;;;2.87;2.67;;;16.80;99.90;;;;;;9872077;30;20606;-82
2021/10/04 16:06:13;;;;;;;2.83;2.63;;;16.80;99.90;;;;;;9855700;30;20227;-82
2021/10/04 16:11:18;;;;;;;3.03;2.73;;;16.80;99.90;;;;;;9870693;30;20200;-82
2021/10/04 16:16:21;;;;;;;2.43;2.30;;;16.80;99.90;;;;;;9855850;30;20211;-82
2021/10/04 16:21:23;;;;;;;2.90;2.60;;;16.70;99.90;;;;;;9855870;30;20303;-82
2021/10/04 16:26:25;;;;;;;2.53;2.43;;;16.70;99.90;;;;;;9871073;30;20290;-81
2021/10/04 16:31:29;;;;;;;3.27;3.07;;;16.70;99.90;;;;;;9840895;30;20204;-82
2021/10/04 16:36:31;;;;;;;3.00;2.80;;;16.60;99.90;;;;;;9868303;30;20598;-83
2021/10/04 16:41:33;;;;;;;14.57;13.47;;;16.60;99.90;;;;;;9857441;30;20245;-83
2021/10/04 16:46:37;;;;;;;3.47;3.23;;;16.50;99.90;;;;;;9873621;30;20207;-80
2021/10/04 16:51:39;;;;;;;4.23;3.93;;;16.50;99.90;;;;;;9875950;30;20289;-83
2021/10/04 16:56:41;;;;;;;5.47;4.97;;;16.50;99.90;;;;;;9876146;30;20202;-83
2021/10/04 17:01:44;;;;;;;23.90;20.70;;;16.50;99.90;;;;;;9864969;30;20300;-81
2021/10/04 17:06:46;;;;;;;3.40;3.30;;;16.30;99.90;;;;;;9877462;30;20231;-82
2021/10/04 17:11:50;;;;;;;2.20;2.10;;;16.30;99.90;;;;;;9863618;30;20243;-83
2021/10/04 17:16:54;;;;;;;2.70;2.50;;;16.20;99.90;;;;;;9848613;30;20211;-81
2021/10/04 17:21:59;;;;;;;3.00;2.87;;;16.20;99.90;;;;;;9852170;30;20280;-82
2021/10/04 17:27:01;;;;;;;2.67;2.47;;;16.20;99.90;;;;;;9848667;30;20260;-83
2021/10/04 17:32:05;;;;;;;2.47;2.37;;;16.10;99.90;;;;;;9821999;30;20267;-82
2021/10/04 17:37:08;;;;;;;2.50;2.40;;;16.10;99.90;;;;;;9824369;30;20212;-83
2021/10/04 17:42:10;;;;;;;11.17;7.80;;;16.00;99.90;;;;;;9832480;30;20307;-84
2021/10/04 17:47:13;;;;;;;4.00;3.00;;;16.00;99.90;;;;;;9820976;30;20685;-84
2021/10/04 17:52:15;;;;;;;3.30;3.07;;;16.00;99.90;;;;;;9864075;30;20231;-82
2021/10/04 17:57:18;;;;;;;3.00;2.80;;;15.90;99.90;;;;;;9861982;30;20306;-84
2021/10/04 18:02:21;;;;;;;3.70;3.40;;;15.90;99.90;;;;;;9837140;30;20239;-83
2021/10/04 18:07:23;;;;;;;3.40;3.20;;;15.80;99.90;;;;;;9863067;30;20331;-80
2021/10/04 18:12:26;;;;;;;4.20;3.80;;;15.80;99.90;;;;;;9825925;30;20231;-83
2021/10/04 18:17:29;;;;;;;3.63;3.33;;;15.80;99.90;;;;;;9839379;30;20214;-84
2021/10/04 18:22:31;;;;;;;4.00;3.70;;;15.80;99.90;;;;;;9851976;30;20308;-83
2021/10/04 18:27:34;;;;;;;4.40;4.00;;;15.80;99.90;;;;;;9866903;30;20709;-84
2021/10/04 18:32:39;;;;;;;5.10;4.57;;;15.80;99.90;;;;;;9866871;30;20728;-82
2021/10/04 18:37:41;;;;;;;6.77;6.07;;;15.80;99.90;;;;;;9853300;30;20677;-84
2021/10/04 18:42:45;;;;;;;5.63;5.10;;;15.70;99.90;;;;;;9869356;30;20725;-84
2021/10/04 18:47:49;;;;;;;4.70;4.40;;;15.70;99.90;;;;;;9887499;30;20208;-83
2021/10/04 18:52:54;;;;;;;4.67;4.30;;;15.70;99.90;;;;;;9891912;30;20335;-82
2021/10/04 18:58:00;;;;;;;6.00;5.40;;;15.70;99.90;;;;;;9865043;30;20199;-84
2021/10/04 19:03:03;;;;;;;5.70;5.00;;;15.70;99.90;;;;;;9864218;30;20251;-83
2021/10/04 19:08:06;;;;;;;5.13;4.53;;;15.80;99.90;;;;;;9843827;30;20232;-82
2021/10/04 19:13:09;;;;;;;5.67;5.27;;;15.70;99.90;;;;;;9813444;30;20263;-82
2021/10/04 19:18:14;;;;;;;5.20;4.90;;;15.70;99.90;;;;;;9804957;30;20248;-82
2021/10/04 19:23:16;;;;;;;7.10;4.80;;;15.70;99.90;;;;;;9849859;30;20266;-82
2021/10/04 19:28:18;;;;;;;5.27;4.97;;;15.70;99.90;;;;;;9810186;30;20299;-83
2021/10/04 19:33:28;;;;;;;5.80;5.40;;;15.80;99.90;;;;;;9819061;30;20243;-83
2021/10/04 19:38:30;;;;;;;7.20;6.70;;;15.70;99.90;;;;;;9838884;30;20234;-83
2021/10/04 19:43:36;;;;;;;5.80;5.40;;;15.70;99.90;;;;;;9846189;30;20246;-84
2021/10/04 19:48:41;;;;;;;8.20;7.00;;;15.80;99.90;;;;;;9847317;30;20266;-84
2021/10/04 19:53:52;;;;;;;6.43;5.63;;;15.80;99.90;;;;;;9856164;30;20242;-84
2021/10/04 19:58:57;;;;;;;8.67;8.17;;;15.80;99.90;;;;;;9846622;30;20212;-83
2021/10/04 20:04:02;;;;;;;7.57;7.07;;;15.80;99.90;;;;;;9832033;30;20223;-84
2021/10/04 20:09:08;;;;;;;8.50;8.00;;;15.80;99.90;;;;;;9822872;30;20686;-83
2021/10/04 20:14:10;;;;;;;9.70;9.10;;;15.80;99.90;;;;;;9814489;30;20322;-85
2021/10/04 20:19:14;;;;;;;9.80;9.10;;;15.80;99.90;;;;;;9804734;30;20259;-83
2021/10/04 20:24:25;;;;;;;9.67;9.07;;;15.80;99.90;;;;;;9828960;30;20243;-83
2021/10/04 20:29:27;;;;;;;10.30;9.60;;;15.80;99.90;;;;;;9856005;30;20211;-85
2021/10/04 20:34:32;;;;;;;47.23;42.93;;;15.80;99.90;;;;;;9838068;30;20273;-84
2021/10/04 20:39:35;;;;;;;10.77;10.07;;;15.80;99.90;;;;;;9821299;30;20227;-84
2021/10/04 20:44:43;;;;;;;9.33;8.73;;;15.80;99.90;;;;;;9830207;30;20339;-84
2021/10/04 20:49:46;;;;;;;10.50;9.80;;;15.80;99.90;;;;;;9869180;30;20687;-83
2021/10/04 20:54:48;;;;;;;8.93;8.33;;;15.80;99.90;;;;;;9870838;30;20270;-84
2021/10/04 20:59:51;;;;;;;10.20;9.50;;;15.80;99.90;;;;;;9860727;30;20219;-84
2021/10/04 21:04:56;;;;;;;9.80;9.20;;;15.80;99.90;;;;;;9863601;30;20219;-83
2021/10/04 21:09:58;;;;;;;9.27;8.63;;;15.80;99.90;;;;;;9866007;30;20286;-85
2021/10/04 21:15:01;;;;;;;8.43;7.93;;;15.70;99.90;;;;;;9879825;30;20309;-85
2021/10/04 21:20:06;;;;;;;9.77;9.07;;;15.70;99.90;;;;;;9848845;30;20281;-84
2021/10/04 21:25:09;;;;;;;8.97;8.37;;;15.70;99.90;;;;;;9872081;30;20238;-83
2021/10/04 21:30:12;;;;;;;9.70;9.00;;;15.60;99.90;;;;;;9859341;30;20208;-84
2021/10/04 21:35:15;;;;;;;9.00;8.40;;;15.50;99.90;;;;;;9858936;30;20720;-84
2021/10/04 21:40:18;;;;;;;10.23;9.43;;;15.50;99.90;;;;;;9860004;30;20285;-85
2021/10/04 21:45:20;;;;;;;10.03;9.20;;;15.50;99.90;;;;;;9844317;30;20241;-84
2021/10/04 21:50:24;;;;;;;9.67;8.90;;;15.50;99.90;;;;;;9844014;30;20628;-83
2021/10/04 21:55:26;;;;;;;12.20;11.40;;;15.50;99.90;;;;;;9859168;30;20238;-82
2021/10/04 22:00:34;;;;;;;11.37;10.50;;;15.50;99.90;;;;;;9859468;30;20813;-82
2021/10/04 22:11:10;;;;;;;9.87;8.97;;;15.60;99.90;;;;;;9858489;30;20668;-84
2021/10/04 22:16:15;;;;;;;12.30;11.17;;;15.60;99.90;;;;;;9909838;24;20262;-83
2021/10/04 22:21:24;;;;;;;12.00;11.10;;;15.60;99.90;;;;;;9912515;30;20603;-83
2021/10/04 22:26:26;;;;;;;12.70;11.80;;;15.60;99.90;;;;;;9860117;30;20212;-84
2021/10/04 22:31:29;;;;;;;13.10;12.20;;;15.60;99.90;;;;;;9879967;30;20242;-82
2021/10/04 22:36:33;;;;;;;14.07;13.00;;;15.60;99.90;;;;;;9860585;30;20237;-83
2021/10/04 22:41:35;;;;;;;13.63;12.53;;;15.60;99.90;;;;;;9875885;30;20591;-82
2021/10/04 22:46:39;;;;;;;16.77;15.47;;;15.60;99.90;;;;;;9875775;30;20198;-84
2021/10/04 22:51:43;;;;;;;16.57;15.27;;;15.50;99.90;;;;;;9859620;30;20231;-83
2021/10/04 22:56:45;;;;;;;17.20;15.67;;;15.60;99.90;;;;;;9862318;30;20685;-82
2021/10/04 23:01:47;;;;;;;15.10;13.80;;;15.60;99.90;;;;;;9859316;30;20243;-82
2021/10/04 23:06:51;;;;;;;14.60;13.50;;;15.60;99.90;;;;;;9857992;30;20238;-83
2021/10/04 23:11:54;;;;;;;14.53;13.43;;;15.60;99.90;;;;;;9856519;30;20223;-83
2021/10/04 23:16:56;;;;;;;12.73;11.60;;;15.60;99.90;;;;;;9871069;30;20188;-82
2021/10/04 23:22:00;;;;;;;13.00;12.10;;;15.50;99.90;;;;;;9875537;30;20263;-83
2021/10/04 23:27:02;;;;;;;15.13;13.93;;;15.50;99.90;;;;;;9855894;30;20261;-82
2021/10/04 23:32:05;;;;;;;14.90;13.70;;;15.50;99.90;;;;;;9855538;30;20315;-82
2021/10/04 23:37:08;;;;;;;16.27;15.07;;;15.50;99.90;;;;;;9855417;30;20685;-83
2021/10/04 23:42:10;;;;;;;16.10;14.70;;;15.50;99.90;;;;;;9840800;30;20302;-82
2021/10/04 23:47:12;;;;;;;17.60;16.10;;;15.50;99.90;;;;;;9840399;30;20207;-83
2021/10/04 23:52:16;;;;;;;16.90;15.50;;;15.50;99.90;;;;;;9856052;30;20241;-83
2021/10/04 23:57:19;;;;;;;16.70;15.30;;;15.50;99.90;;;;;;9857616;30;20247;-83
